createdAt,value
2018-11-28T00:01:27.653Z,101651.34
2018-11-28T00:03:55.788Z,101657.03
2018-11-28T00:06:23.935Z,101651.34
2018-11-28T00:08:52.080Z,101652.25
2018-11-28T00:11:20.262Z,101650.55
2018-11-28T00:13:48.412Z,101648.92
2018-11-28T00:16:16.591Z,101650.55
2018-11-28T00:18:44.725Z,101648.33
2018-11-28T00:21:12.885Z,101643.95
2018-11-28T00:23:41.067Z,101644.34
2018-11-28T00:26:09.230Z,101640.81
2018-11-28T00:28:37.369Z,101640.88
2018-11-28T00:31:05.560Z,101628.25
2018-11-28T00:33:33.725Z,101629.48
2018-11-28T00:36:01.873Z,101624.26
2018-11-28T00:38:30.007Z,101624.84
2018-11-28T00:40:58.144Z,101620.92
2018-11-28T00:43:26.296Z,101617.39
2018-11-28T00:45:54.470Z,101623.92
2018-11-28T00:48:22.627Z,101622.09
2018-11-28T00:50:50.778Z,101620.79
2018-11-28T00:53:18.945Z,101616.47
2018-11-28T00:55:48.548Z,101615.88
2018-11-28T00:58:15.248Z,101619.34
2018-11-28T01:00:43.407Z,101614.64
2018-11-28T01:03:11.540Z,101603.64
2018-11-28T01:05:39.676Z,101599.66
2018-11-28T01:08:07.843Z,101599.16
2018-11-28T01:10:36.018Z,101598.41
2018-11-28T01:13:04.149Z,101597.03
2018-11-28T01:15:32.312Z,101605.64
2018-11-28T01:18:00.497Z,101609.11
2018-11-28T01:20:28.669Z,101599.03
2018-11-28T01:22:56.861Z,101598.18
2018-11-28T01:25:25.003Z,101599.09
2018-11-28T01:27:53.158Z,101600.34
2018-11-28T01:30:22.328Z,101608.19
2018-11-28T01:32:50.537Z,101609.50
2018-11-28T01:35:19.516Z,101619.52
2018-11-28T01:37:47.740Z,101620.81
2018-11-28T01:40:20.876Z,101623.77
2018-11-28T01:42:49.054Z,101618.20
2018-11-28T01:45:19.176Z,101621.28
2018-11-28T01:47:47.421Z,101622.19
2018-11-28T01:50:16.492Z,101611.72
2018-11-28T01:52:44.653Z,101613.82
2018-11-28T01:55:17.756Z,101611.59
2018-11-28T01:57:45.929Z,101614.08
2018-11-28T02:00:20.398Z,101611.85
2018-11-28T02:02:50.878Z,101616.70
2018-11-28T02:05:19.064Z,101614.21
2018-11-28T02:07:47.201Z,101612.38
2018-11-28T02:10:16.072Z,101615.39
2018-11-28T02:12:44.212Z,101611.06
2018-11-28T02:15:15.421Z,101608.45
2018-11-28T02:17:43.591Z,101613.30
2018-11-28T02:20:12.802Z,101612.51
2018-11-28T02:22:40.969Z,101607.34
2018-11-28T02:25:11.412Z,101605.25
2018-11-28T02:27:39.568Z,101603.09
2018-11-28T02:30:11.463Z,101596.55
2018-11-28T02:32:39.640Z,101594.32
2018-11-28T02:35:09.327Z,101586.02
2018-11-28T02:37:37.812Z,101588.17
2018-11-28T02:40:07.837Z,101580.70
2018-11-28T02:42:36.009Z,101578.16
2018-11-28T02:45:05.821Z,101575.48
2018-11-28T02:47:33.960Z,101581.10
2018-11-28T02:50:02.114Z,101585.35
2018-11-28T02:52:30.266Z,101577.56
2018-11-28T02:54:58.451Z,101579.40
2018-11-28T02:57:26.621Z,101581.23
2018-11-28T02:59:54.766Z,101577.70
2018-11-28T03:02:22.922Z,101578.62
2018-11-28T03:04:51.091Z,101568.02
2018-11-28T03:07:19.257Z,101567.48
2018-11-28T03:09:47.406Z,101566.18
2018-11-28T03:12:15.534Z,101565.66
2018-11-28T03:14:43.694Z,101556.88
2018-11-28T03:17:17.317Z,101562.97
2018-11-28T03:19:45.482Z,101569.97
2018-11-28T03:22:13.624Z,101571.73
2018-11-28T03:24:41.765Z,101575.59
2018-11-28T03:27:09.966Z,101576.52
2018-11-28T03:29:38.157Z,101577.30
2018-11-28T03:32:06.338Z,101573.77
2018-11-28T03:34:34.469Z,101569.45
2018-11-28T03:37:02.626Z,101575.00
2018-11-28T03:39:30.825Z,101569.45
2018-11-28T03:41:58.981Z,101570.62
2018-11-28T03:44:27.138Z,101561.91
2018-11-28T03:46:55.304Z,101566.69
2018-11-28T03:49:23.461Z,101566.13
2018-11-28T03:51:51.642Z,101555.20
2018-11-28T03:54:19.795Z,101555.13
2018-11-28T03:56:47.925Z,101559.45
2018-11-28T03:59:16.073Z,101562.45
2018-11-28T04:01:44.222Z,101563.77
2018-11-28T04:04:12.370Z,101567.77
2018-11-28T04:06:40.597Z,101564.82
2018-11-28T04:09:08.883Z,101555.05
2018-11-28T04:11:36.961Z,101559.76
2018-11-28T04:14:05.150Z,101555.37
2018-11-28T04:16:33.344Z,101556.97
2018-11-28T04:19:04.496Z,101555.98
2018-11-28T04:21:32.710Z,101555.98
2018-11-28T04:24:01.137Z,101558.67
2018-11-28T04:26:29.299Z,101563.91
2018-11-28T04:28:57.477Z,101565.53
2018-11-28T04:31:25.631Z,101561.54
2018-11-28T04:33:53.833Z,101560.62
2018-11-28T04:36:21.990Z,101570.98
2018-11-28T04:38:50.136Z,101560.97
2018-11-28T04:41:18.283Z,101565.22
2018-11-28T04:43:46.453Z,101562.75
2018-11-28T04:46:14.618Z,101572.30
2018-11-28T04:48:42.768Z,101566.08
2018-11-28T04:51:10.919Z,101571.14
2018-11-28T04:53:39.086Z,101565.16
2018-11-28T04:56:07.229Z,101559.45
2018-11-28T04:58:35.409Z,101559.81
2018-11-28T05:01:03.567Z,101558.51
2018-11-28T05:03:31.734Z,101563.84
2018-11-28T05:05:59.876Z,101563.39
2018-11-28T05:08:28.070Z,101558.90
2018-11-28T05:10:56.261Z,101564.92
2018-11-28T05:13:24.673Z,101557.59
2018-11-28T05:15:52.838Z,101560.77
2018-11-28T05:18:20.988Z,101564.06
2018-11-28T05:20:49.154Z,101558.77
2018-11-28T05:23:17.422Z,101549.98
2018-11-28T05:25:45.619Z,101552.99
2018-11-28T05:28:14.557Z,101557.70
2018-11-28T05:30:42.696Z,101554.63
2018-11-28T05:33:11.010Z,101558.48
2018-11-28T05:35:40.207Z,101549.98
2018-11-28T05:38:12.101Z,101556.39
2018-11-28T05:40:40.613Z,101552.39
2018-11-28T05:43:08.850Z,101556.64
2018-11-28T05:45:37.281Z,101560.50
2018-11-28T05:48:05.849Z,101561.95
2018-11-28T05:50:34.170Z,101561.50
2018-11-28T05:53:02.382Z,101560.65
2018-11-28T05:55:30.613Z,101556.19
2018-11-28T05:57:58.788Z,101558.28
2018-11-28T06:00:33.022Z,101560.89
2018-11-28T06:03:01.190Z,101553.03
2018-11-28T06:05:29.402Z,101549.81
2018-11-28T06:07:57.589Z,101555.37
2018-11-28T06:10:25.773Z,101556.69
2018-11-28T06:12:53.926Z,101557.22
2018-11-28T06:15:22.118Z,101556.69
2018-11-28T06:17:50.365Z,101560.97
2018-11-28T06:20:18.545Z,101561.92
2018-11-28T06:22:46.762Z,101565.85
2018-11-28T06:25:16.888Z,101555.27
2018-11-28T06:27:44.363Z,101559.91
2018-11-28T06:30:14.597Z,101556.37
2018-11-28T06:32:43.717Z,101551.52
2018-11-28T06:35:12.200Z,101553.36
2018-11-28T06:37:40.775Z,101557.81
2018-11-28T06:40:11.766Z,101558.14
2018-11-28T06:42:40.025Z,101559.66
2018-11-28T06:45:10.594Z,101555.20
2018-11-28T06:47:38.793Z,101564.37
2018-11-28T06:50:14.852Z,101558.84
2018-11-28T06:52:43.959Z,101562.06
2018-11-28T06:55:13.553Z,101561.14
2018-11-28T06:57:42.440Z,101565.46
2018-11-28T07:00:17.818Z,101564.16
2018-11-28T07:02:46.375Z,101575.94
2018-11-28T07:05:14.642Z,101573.33
2018-11-28T07:07:49.773Z,101580.41
2018-11-28T07:10:19.013Z,101586.23
2018-11-28T07:12:47.188Z,101584.72
2018-11-28T07:15:16.457Z,101589.11
2018-11-28T07:17:44.944Z,101591.27
2018-11-28T07:20:15.124Z,101592.33
2018-11-28T07:22:43.350Z,101598.28
2018-11-28T07:25:12.655Z,101602.89
2018-11-28T07:27:45.021Z,101615.17
2018-11-28T07:30:13.005Z,101611.13
2018-11-28T07:32:41.244Z,101616.23
2018-11-28T07:35:10.143Z,101616.09
2018-11-28T07:37:38.733Z,101620.41
2018-11-28T07:40:12.548Z,101619.89
2018-11-28T07:42:41.420Z,101618.11
2018-11-28T07:45:11.235Z,101617.66
2018-11-28T07:47:39.422Z,101625.73
2018-11-28T07:50:08.929Z,101624.28
2018-11-28T07:52:37.477Z,101620.73
2018-11-28T07:55:07.530Z,101627.93
2018-11-28T07:57:35.812Z,101619.53
2018-11-28T08:00:04.804Z,101627.15
2018-11-28T08:02:33.053Z,101615.75
2018-11-28T08:05:01.321Z,101624.84
2018-11-28T08:07:29.523Z,101616.38
2018-11-28T08:09:57.747Z,101624.25
2018-11-28T08:12:25.985Z,101625.48
2018-11-28T08:14:54.160Z,101628.00
2018-11-28T08:17:22.373Z,101623.39
2018-11-28T08:19:50.590Z,101624.17
2018-11-28T08:22:19.704Z,101625.34
2018-11-28T08:24:47.910Z,101628.73
2018-11-28T08:27:16.097Z,101630.05
2018-11-28T08:29:44.315Z,101629.20
2018-11-28T08:32:12.458Z,101623.63
2018-11-28T08:34:40.709Z,101627.03
2018-11-28T08:37:08.937Z,101629.83
2018-11-28T08:39:37.120Z,101622.42
2018-11-28T08:42:06.209Z,101630.82
2018-11-28T08:44:34.441Z,101627.66
2018-11-28T08:47:02.752Z,101631.59
2018-11-28T08:49:31.181Z,101624.58
2018-11-28T08:51:59.365Z,101619.65
2018-11-28T08:54:27.552Z,101618.27
2018-11-28T08:56:56.294Z,101615.92
2018-11-28T08:59:24.516Z,101625.27
2018-11-28T09:01:52.770Z,101614.93
2018-11-28T09:04:21.090Z,101638.77
2018-11-28T09:06:49.426Z,101621.19
2018-11-28T09:09:17.716Z,101616.72
2018-11-28T09:11:46.025Z,101621.78
2018-11-28T09:14:14.283Z,101617.11
2018-11-28T09:16:42.557Z,101616.84
2018-11-28T09:19:10.713Z,101618.55
2018-11-28T09:21:38.977Z,101628.43
2018-11-28T09:24:07.360Z,101617.94
2018-11-28T09:26:35.569Z,101621.72
2018-11-28T09:29:03.718Z,101632.06
2018-11-28T09:31:31.912Z,101631.68
2018-11-28T09:34:00.063Z,101626.19
2018-11-28T09:36:28.671Z,101623.42
2018-11-28T09:38:56.861Z,101630.42
2018-11-28T09:41:25.157Z,101628.50
2018-11-28T09:43:53.337Z,101621.47
2018-11-28T09:46:21.566Z,101618.77
2018-11-28T09:48:49.797Z,101618.23
2018-11-28T09:51:18.014Z,101625.84
2018-11-28T09:53:46.244Z,101617.51
2018-11-28T09:56:14.506Z,101621.60
2018-11-28T09:58:42.720Z,101615.66
2018-11-28T10:01:10.922Z,101618.79
2018-11-28T10:03:39.101Z,101610.09
2018-11-28T10:06:07.348Z,101625.62
2018-11-28T10:08:35.541Z,101612.41
2018-11-28T10:11:03.704Z,101611.33
2018-11-28T10:13:31.893Z,101618.48
2018-11-28T10:16:01.536Z,101614.93
2018-11-28T10:18:28.260Z,101616.70
2018-11-28T10:20:56.400Z,101606.97
2018-11-28T10:23:24.673Z,101603.42
2018-11-28T10:25:53.479Z,101599.64
2018-11-28T10:28:21.672Z,101596.02
2018-11-28T10:30:49.972Z,101595.39
2018-11-28T10:33:18.167Z,101588.20
2018-11-28T10:35:46.664Z,101596.00
2018-11-28T10:38:14.674Z,101590.45
2018-11-28T10:40:42.956Z,101583.03
2018-11-28T10:43:11.161Z,101580.33
2018-11-28T10:45:39.386Z,101575.38
2018-11-28T10:48:09.325Z,101572.10
2018-11-28T10:50:37.603Z,101572.10
2018-11-28T10:53:06.285Z,101566.30
2018-11-28T10:55:34.519Z,101565.84
2018-11-28T10:58:02.689Z,101566.30
2018-11-28T11:00:36.584Z,101562.20
2018-11-28T11:03:11.361Z,101561.58
2018-11-28T11:05:45.018Z,101558.33
2018-11-28T11:08:18.564Z,101564.54
2018-11-28T11:10:52.029Z,101555.10
2018-11-28T11:13:25.561Z,101560.11
2018-11-28T11:15:58.737Z,101562.00
2018-11-28T11:18:27.807Z,101560.05
2018-11-28T11:20:56.417Z,101559.72
2018-11-28T11:23:25.422Z,101569.79
2018-11-28T11:26:01.216Z,101553.17
2018-11-28T11:28:29.388Z,101554.48
2018-11-28T11:30:58.565Z,101553.39
2018-11-28T11:33:26.784Z,101551.44
2018-11-28T11:35:54.951Z,101548.52
2018-11-28T11:38:23.181Z,101551.92
2018-11-28T11:40:52.121Z,101548.44
2018-11-28T11:43:20.392Z,101545.89
2018-11-28T11:45:52.331Z,101532.11
2018-11-28T11:48:20.465Z,101530.30
2018-11-28T11:50:49.330Z,101530.80
2018-11-28T11:53:17.526Z,101526.85
2018-11-28T11:55:45.778Z,101534.91
2018-11-28T11:58:13.924Z,101539.03
2018-11-28T12:00:43.518Z,101528.43
2018-11-28T12:03:12.833Z,101530.68
2018-11-28T12:05:42.549Z,101527.88
2018-11-28T12:08:10.728Z,101526.30
2018-11-28T12:10:39.010Z,101518.84
2018-11-28T12:13:07.181Z,101522.45
2018-11-28T12:15:35.820Z,101530.72
2018-11-28T12:18:03.660Z,101514.94
2018-11-28T12:20:44.849Z,101514.77
2018-11-28T12:23:13.081Z,101508.48
2018-11-28T12:25:41.268Z,101512.61
2018-11-28T12:28:09.448Z,101507.26
2018-11-28T12:30:37.698Z,101512.34
2018-11-28T12:33:06.638Z,101515.53
2018-11-28T12:35:34.881Z,101518.36
2018-11-28T12:38:03.207Z,101508.89
2018-11-28T12:40:32.633Z,101512.92
2018-11-28T12:43:01.258Z,101509.45
2018-11-28T12:45:29.452Z,101502.97
2018-11-28T12:47:57.609Z,101505.80
2018-11-28T12:50:28.721Z,101520.98
2018-11-28T12:52:58.221Z,101512.92
2018-11-28T12:55:26.433Z,101514.25
2018-11-28T12:57:55.584Z,101505.88
2018-11-28T13:00:24.996Z,101493.02
2018-11-28T13:02:53.180Z,101499.77
2018-11-28T13:05:22.561Z,101494.06
2018-11-28T13:07:50.780Z,101489.45
2018-11-28T13:10:20.217Z,101473.67
2018-11-28T13:12:49.165Z,101472.38
2018-11-28T13:15:18.222Z,101470.29
2018-11-28T13:17:46.400Z,101482.51
2018-11-28T13:20:15.582Z,101477.25
2018-11-28T13:22:43.968Z,101479.03
2018-11-28T13:25:14.300Z,101468.50
2018-11-28T13:27:42.818Z,101473.67
2018-11-28T13:30:15.069Z,101471.61
2018-11-28T13:32:43.616Z,101462.39
2018-11-28T13:35:12.856Z,101459.38
2018-11-28T13:37:41.417Z,101450.17
2018-11-28T13:40:11.842Z,101450.84
2018-11-28T13:42:40.092Z,101438.89
2018-11-28T13:45:13.442Z,101442.46
2018-11-28T13:47:42.446Z,101448.20
2018-11-28T13:50:11.061Z,101448.67
2018-11-28T13:52:39.237Z,101442.47
2018-11-28T13:57:41.546Z,101431.21
2018-11-28T14:00:10.190Z,101431.21
2018-11-28T14:02:38.597Z,101431.02
2018-11-28T14:05:08.955Z,101430.73
2018-11-28T14:07:37.087Z,101427.44
2018-11-28T14:10:08.673Z,101420.70
2018-11-28T14:12:36.924Z,101422.17
2018-11-28T14:15:07.906Z,101420.48
2018-11-28T14:17:36.065Z,101427.44
2018-11-28T14:20:04.237Z,101430.06
2018-11-28T14:22:32.388Z,101425.58
2018-11-28T14:25:00.605Z,101435.16
2018-11-28T14:27:28.784Z,101432.43
2018-11-28T14:29:56.958Z,101429.70
2018-11-28T14:32:25.090Z,101439.09
2018-11-28T14:34:54.077Z,101430.73
2018-11-28T14:37:22.316Z,101438.72
2018-11-28T14:39:50.461Z,101434.68
2018-11-28T14:42:18.601Z,101429.33
2018-11-28T14:44:46.754Z,101435.06
2018-11-28T14:47:14.884Z,101426.87
2018-11-28T14:49:43.076Z,101437.97
2018-11-28T14:52:11.281Z,101439.29
2018-11-28T14:54:39.400Z,101436.84
2018-11-28T14:57:07.565Z,101439.84
2018-11-28T14:59:40.359Z,101428.86
2018-11-28T15:02:03.949Z,101426.31
2018-11-28T15:04:32.117Z,101432.42
2018-11-28T15:07:01.463Z,101428.19
2018-11-28T15:09:36.437Z,101434.20
2018-11-28T15:12:11.598Z,101436.92
2018-11-28T15:14:35.744Z,101433.36
2018-11-28T15:17:03.913Z,101432.11
2018-11-28T15:19:32.107Z,101437.75
2018-11-28T15:22:00.281Z,101429.48
2018-11-28T15:24:28.478Z,101431.56
2018-11-28T15:26:56.633Z,101434.19
2018-11-28T15:29:24.813Z,101426.77
2018-11-28T15:31:53.017Z,101434.10
2018-11-28T15:34:21.218Z,101448.56
2018-11-28T15:36:49.360Z,101459.26
2018-11-28T15:39:17.509Z,101446.41
2018-11-28T15:41:45.659Z,101445.84
2018-11-28T15:44:13.865Z,101439.66
2018-11-28T15:46:42.105Z,101437.58
2018-11-28T15:49:10.256Z,101438.14
2018-11-28T15:51:38.409Z,101446.20
2018-11-28T15:54:06.633Z,101440.19
2018-11-28T15:56:34.821Z,101443.39
2018-11-28T15:59:02.982Z,101446.75
2018-11-28T16:01:31.145Z,101453.13
2018-11-28T16:03:59.289Z,101449.39
2018-11-28T16:06:27.446Z,101449.65
2018-11-28T16:08:55.638Z,101444.69
2018-11-28T16:11:24.450Z,101446.09
2018-11-28T16:13:52.628Z,101450.26
2018-11-28T16:16:20.764Z,101452.12
2018-11-28T16:18:49.028Z,101448.19
2018-11-28T16:21:17.277Z,101450.34
2018-11-28T16:23:45.461Z,101445.00
2018-11-28T16:26:13.661Z,101437.42
2018-11-28T16:28:41.823Z,101442.33
2018-11-28T16:31:09.995Z,101443.53
2018-11-28T16:33:38.140Z,101448.70
2018-11-28T16:36:06.337Z,101446.16
2018-11-28T16:38:34.468Z,101448.39
2018-11-28T16:41:02.617Z,101459.58
2018-11-28T16:43:30.810Z,101449.63
2018-11-28T16:45:58.993Z,101443.61
2018-11-28T16:48:27.164Z,101441.15
2018-11-28T16:50:55.316Z,101446.41
2018-11-28T16:53:23.477Z,101450.26
2018-11-28T16:55:51.683Z,101449.80
2018-11-28T16:58:19.853Z,101445.85
2018-11-28T17:00:47.988Z,101450.17
2018-11-28T17:03:16.236Z,101457.50
2018-11-28T17:05:44.379Z,101467.25
2018-11-28T17:08:12.592Z,101471.19
2018-11-28T17:10:40.776Z,101465.55
2018-11-28T17:13:08.936Z,101472.45
2018-11-28T17:15:37.074Z,101479.41
2018-11-28T17:18:06.057Z,101472.38
2018-11-28T17:20:34.211Z,101472.38
2018-11-28T17:23:02.438Z,101475.30
2018-11-28T17:25:32.185Z,101474.53
2018-11-28T17:28:00.481Z,101469.75
2018-11-28T17:30:30.746Z,101479.41
2018-11-28T17:32:58.942Z,101472.84
2018-11-28T17:35:27.076Z,101478.48
2018-11-28T17:37:55.229Z,101483.27
2018-11-28T17:40:27.497Z,101492.74
2018-11-28T17:42:57.825Z,101489.73
2018-11-28T17:45:26.390Z,101489.27
2018-11-28T17:47:54.580Z,101489.52
2018-11-28T17:50:23.859Z,101494.01
2018-11-28T17:53:10.163Z,101485.91
2018-11-28T17:55:43.418Z,101479.34
2018-11-28T17:58:10.910Z,101469.61
2018-11-28T18:00:39.208Z,101473.16
2018-11-28T18:03:07.397Z,101462.19
2018-11-28T18:05:35.556Z,101468.67
2018-11-28T18:08:03.725Z,101466.12
2018-11-28T18:10:31.973Z,101465.11
2018-11-28T18:13:07.753Z,101465.66
2018-11-28T18:15:35.892Z,101474.09
2018-11-28T18:18:04.550Z,101469.69
2018-11-28T18:20:32.715Z,101466.22
2018-11-28T18:23:00.878Z,101470.37
2018-11-28T18:25:30.442Z,101462.48
2018-11-28T18:27:58.580Z,101469.05
2018-11-28T18:30:26.750Z,101463.34
2018-11-28T18:32:55.009Z,101447.11
2018-11-28T18:35:23.164Z,101437.83
2018-11-28T18:37:51.328Z,101445.97
2018-11-28T18:40:19.545Z,101440.87
2018-11-28T18:42:47.709Z,101434.61
2018-11-28T18:45:20.528Z,101429.64
2018-11-28T18:47:48.908Z,101427.37
2018-11-28T18:50:17.221Z,101423.34
2018-11-28T18:52:45.386Z,101440.33
2018-11-28T18:55:16.718Z,101441.09
2018-11-28T18:57:43.115Z,101433.81
2018-11-28T19:00:13.717Z,101441.61
2018-11-28T19:02:42.748Z,101442.23
2018-11-28T19:05:10.257Z,101441.31
2018-11-28T19:07:38.404Z,101450.72
2018-11-28T19:10:09.661Z,101447.16
2018-11-28T19:12:37.825Z,101446.58
2018-11-28T19:15:09.073Z,101439.16
2018-11-28T19:17:37.254Z,101431.91
2018-11-28T19:20:08.293Z,101429.66
2018-11-28T19:22:36.437Z,101423.86
2018-11-28T19:25:06.564Z,101436.44
2018-11-28T19:27:34.728Z,101428.77
2018-11-28T19:30:02.952Z,101427.63
2018-11-28T19:32:31.183Z,101436.65
2018-11-28T19:34:59.353Z,101433.44
2018-11-28T19:37:27.494Z,101427.63
2018-11-28T19:39:55.659Z,101426.23
2018-11-28T19:42:23.852Z,101419.75
2018-11-28T19:44:52.126Z,101414.88
2018-11-28T19:47:20.241Z,101414.58
2018-11-28T19:49:48.393Z,101410.37
2018-11-28T19:52:16.624Z,101402.20
2018-11-28T19:54:44.814Z,101408.22
2018-11-28T19:57:12.976Z,101402.84
2018-11-28T19:59:41.250Z,101419.19
2018-11-28T20:02:09.433Z,101411.02
2018-11-28T20:04:37.609Z,101421.23
2018-11-28T20:07:06.062Z,101411.49
2018-11-28T20:09:34.290Z,101415.52
2018-11-28T20:12:02.452Z,101421.73
2018-11-28T20:14:30.652Z,101412.42
2018-11-28T20:16:58.998Z,101409.80
2018-11-28T20:19:27.482Z,101413.94
2018-11-28T20:21:55.669Z,101410.37
2018-11-28T20:24:23.862Z,101406.06
2018-11-28T20:26:52.066Z,101399.28
2018-11-28T20:29:20.390Z,101389.84
2018-11-28T20:31:48.709Z,101391.99
2018-11-28T20:34:18.001Z,101394.45
2018-11-28T20:36:47.008Z,101407.67
2018-11-28T20:39:15.594Z,101413.86
2018-11-28T20:41:44.435Z,101408.52
2018-11-28T20:44:12.818Z,101398.56
2018-11-28T20:46:41.463Z,101397.80
2018-11-28T20:49:09.839Z,101391.88
2018-11-28T20:51:38.422Z,101387.09
2018-11-28T20:54:07.147Z,101385.77
2018-11-28T20:56:36.432Z,101396.78
2018-11-28T20:59:05.474Z,101407.17
2018-11-28T21:01:33.777Z,101400.43
2018-11-28T21:04:01.967Z,101403.82
2018-11-28T21:06:30.118Z,101401.48
2018-11-28T21:08:58.297Z,101410.97
2018-11-28T21:11:26.440Z,101403.56
2018-11-28T21:13:54.593Z,101406.44
2018-11-28T21:16:22.749Z,101408.14
2018-11-28T21:18:50.905Z,101401.40
2018-11-28T21:21:19.064Z,101395.59
2018-11-28T21:23:47.213Z,101400.84
2018-11-28T21:26:15.386Z,101385.55
2018-11-28T21:28:43.589Z,101382.63
2018-11-28T21:31:11.767Z,101381.90
2018-11-28T21:33:39.994Z,101384.88
2018-11-28T21:36:08.336Z,101384.41
2018-11-28T21:38:36.453Z,101383.01
2018-11-28T21:41:04.923Z,101377.58
2018-11-28T21:43:33.086Z,101380.00
2018-11-28T21:46:01.303Z,101381.52
2018-11-28T21:48:29.470Z,101380.20
2018-11-28T21:50:57.626Z,101379.45
2018-11-28T21:53:25.849Z,101370.25
2018-11-28T21:55:54.036Z,101375.88
2018-11-28T21:58:22.188Z,101380.38
2018-11-28T22:00:50.334Z,101387.70
2018-11-28T22:03:18.472Z,101383.67
2018-11-28T22:05:46.682Z,101378.72
2018-11-28T22:08:14.888Z,101376.47
2018-11-28T22:10:43.024Z,101379.09
2018-11-28T22:13:11.181Z,101383.24
2018-11-28T22:15:39.333Z,101394.59
2018-11-28T22:18:07.554Z,101392.61
2018-11-28T22:20:35.708Z,101405.58
2018-11-28T22:23:03.870Z,101398.80
2018-11-28T22:25:32.113Z,101395.91
2018-11-28T22:28:00.251Z,101386.59
2018-11-28T22:30:29.060Z,101376.84
2018-11-28T22:32:57.817Z,101377.51
2018-11-28T22:35:26.053Z,101386.66
2018-11-28T22:37:54.228Z,101382.63
2018-11-28T22:40:25.481Z,101381.59
2018-11-28T22:42:53.629Z,101378.59
2018-11-28T22:45:29.713Z,101385.16
2018-11-28T22:47:57.860Z,101386.39
2018-11-28T22:50:26.017Z,101384.05
2018-11-28T22:52:54.180Z,101385.25
2018-11-28T22:55:22.332Z,101387.23
2018-11-28T22:57:50.495Z,101373.88
2018-11-28T23:00:24.879Z,101380.95
2018-11-28T23:03:05.838Z,101374.26
2018-11-28T23:05:37.921Z,101370.69
2018-11-28T23:08:08.057Z,101373.52
2018-11-28T23:10:36.829Z,101374.28
2018-11-28T23:13:05.401Z,101366.11
2018-11-28T23:15:33.630Z,101360.02
2018-11-28T23:18:01.797Z,101353.89
2018-11-28T23:20:29.977Z,101342.44
2018-11-28T23:22:58.105Z,101342.73
2018-11-28T23:25:26.293Z,101357.19
2018-11-28T23:27:54.508Z,101357.01
2018-11-28T23:30:29.334Z,101350.44
2018-11-28T23:32:57.517Z,101352.69
2018-11-28T23:35:25.738Z,101349.88
2018-11-28T23:37:53.909Z,101339.73
2018-11-28T23:40:22.865Z,101335.03
2018-11-28T23:42:51.622Z,101337.66
2018-11-28T23:45:19.805Z,101340.30
2018-11-28T23:47:48.131Z,101340.48
2018-11-28T23:50:18.109Z,101334.84
2018-11-28T23:52:46.637Z,101333.53
2018-11-28T23:55:30.768Z,101326.11
2018-11-28T23:57:58.907Z,101328.55
